createdAt,value
2022-10-22T00:00:17.170Z,18.20
2022-10-22T00:00:39.871Z,18.33
2022-10-22T00:01:02.611Z,18.15
2022-10-22T00:01:25.621Z,18.30
2022-10-22T00:01:48.361Z,18.48
2022-10-22T00:02:16.010Z,18.20
2022-10-22T00:02:38.814Z,18.17
2022-10-22T00:03:01.658Z,17.95
2022-10-22T00:03:24.343Z,18.08
2022-10-22T00:03:47.038Z,17.85
2022-10-22T00:04:09.762Z,17.63
2022-10-22T00:04:34.661Z,18.05
2022-10-22T00:04:58.438Z,18.08
2022-10-22T00:05:21.113Z,17.80
2022-10-22T00:05:43.861Z,18.25
2022-10-22T00:06:07.240Z,18.10
2022-10-22T00:06:30.062Z,18.25
2022-10-22T00:06:52.731Z,18.08
2022-10-22T00:07:15.731Z,17.48
2022-10-22T00:07:38.970Z,17.27
2022-10-22T00:08:01.957Z,17.75
2022-10-22T00:08:24.652Z,18.08
2022-10-22T00:08:47.357Z,17.33
2022-10-22T00:09:10.350Z,17.25
2022-10-22T00:09:33.122Z,17.60
2022-10-22T00:09:55.895Z,17.42
2022-10-22T00:10:19.376Z,17.17
2022-10-22T00:10:42.040Z,17.50
2022-10-22T00:11:11.511Z,17.60
2022-10-22T00:11:34.233Z,17.67
2022-10-22T00:11:56.985Z,16.75
2022-10-22T00:12:20.005Z,17.20
2022-10-22T00:12:43.206Z,17.73
2022-10-22T00:13:06.112Z,17.27
2022-10-22T00:13:28.931Z,16.63
2022-10-22T00:13:51.594Z,17.77
2022-10-22T00:14:14.405Z,17.45
2022-10-22T00:14:37.226Z,17.27
2022-10-22T00:15:00.015Z,17.02
2022-10-22T00:15:23.675Z,16.67
2022-10-22T00:15:46.374Z,17.05
2022-10-22T00:16:09.245Z,17.13
2022-10-22T00:16:32.087Z,17.17
2022-10-22T00:16:56.500Z,17.60
2022-10-22T00:17:20.707Z,17.73
2022-10-22T00:17:43.636Z,17.33
2022-10-22T00:18:06.515Z,16.85
2022-10-22T00:18:29.280Z,17.25
2022-10-22T00:18:52.012Z,16.90
2022-10-22T00:19:15.648Z,17.38
2022-10-22T00:19:38.444Z,17.90
2022-10-22T00:20:01.188Z,17.77
2022-10-22T00:20:25.340Z,18.00
2022-10-22T00:20:48.027Z,17.05
2022-10-22T00:21:10.882Z,17.40
2022-10-22T00:21:33.597Z,16.90
2022-10-22T00:21:56.638Z,18.02
2022-10-22T00:22:19.353Z,18.08
2022-10-22T00:22:42.108Z,18.10
2022-10-22T00:23:04.947Z,17.38
2022-10-22T00:23:27.653Z,18.60
2022-10-22T00:23:50.330Z,18.50
2022-10-22T00:24:13.043Z,18.60
2022-10-22T00:24:35.945Z,18.75
2022-10-22T00:24:58.717Z,17.73
2022-10-22T00:25:21.423Z,17.92
2022-10-22T00:25:44.147Z,18.33
2022-10-22T00:26:06.874Z,18.02
2022-10-22T00:26:29.589Z,17.75
2022-10-22T00:26:52.326Z,17.73
2022-10-22T00:27:15.079Z,17.88
2022-10-22T00:27:37.989Z,19.05
2022-10-22T00:28:01.148Z,18.48
2022-10-22T00:28:24.092Z,18.73
2022-10-22T00:28:46.794Z,18.73
2022-10-22T00:29:09.649Z,18.52
2022-10-22T00:29:32.313Z,18.52
2022-10-22T00:29:55.088Z,18.90
2022-10-22T00:30:17.804Z,18.42
2022-10-22T00:30:40.653Z,18.70
2022-10-22T00:31:03.428Z,19.00
2022-10-22T00:31:26.214Z,19.70
2022-10-22T00:31:50.266Z,19.58
2022-10-22T00:32:13.005Z,18.63
2022-10-22T00:32:37.230Z,19.38
2022-10-22T00:33:00.479Z,20.15
2022-10-22T00:33:23.309Z,20.30
2022-10-22T00:33:46.628Z,19.98
2022-10-22T00:34:10.084Z,19.98
2022-10-22T00:34:32.875Z,18.50
2022-10-22T00:34:55.635Z,19.08
2022-10-22T00:35:18.419Z,19.35
2022-10-22T00:35:41.295Z,19.35
2022-10-22T00:36:04.272Z,18.90
2022-10-22T00:36:27.076Z,19.05
2022-10-22T00:36:50.280Z,19.33
2022-10-22T00:37:13.046Z,19.73
2022-10-22T00:37:35.827Z,19.67
2022-10-22T00:37:58.616Z,19.20
2022-10-22T00:38:21.359Z,18.98
2022-10-22T00:38:44.100Z,19.60
2022-10-22T00:39:06.782Z,19.27
2022-10-22T00:39:29.610Z,18.60
2022-10-22T00:39:52.321Z,18.48
2022-10-22T00:40:15.008Z,18.83
2022-10-22T00:40:37.754Z,18.60
2022-10-22T00:41:28.105Z,18.65
2022-10-22T00:41:51.311Z,18.73
2022-10-22T00:42:16.966Z,19.08
2022-10-22T00:42:39.986Z,18.77
2022-10-22T00:43:02.896Z,18.20
2022-10-22T00:43:25.601Z,18.13
2022-10-22T00:43:54.809Z,18.65
2022-10-22T00:44:54.415Z,18.10
2022-10-22T00:45:20.188Z,17.95
2022-10-22T00:45:42.894Z,17.95
2022-10-22T00:46:05.676Z,18.58
2022-10-22T00:46:28.602Z,17.60
2022-10-22T00:46:51.281Z,18.20
2022-10-22T00:47:14.202Z,17.58
2022-10-22T00:47:39.565Z,17.52
2022-10-22T00:48:04.879Z,17.60
2022-10-22T00:48:28.507Z,18.13
2022-10-22T00:48:52.557Z,18.02
2022-10-22T00:49:15.742Z,17.65
2022-10-22T00:49:38.522Z,17.60
2022-10-22T00:50:01.292Z,18.67
2022-10-22T00:50:27.241Z,18.00
2022-10-22T00:50:50.985Z,17.80
2022-10-22T00:51:13.680Z,17.98
2022-10-22T00:51:36.420Z,18.80
2022-10-22T00:51:59.161Z,19.20
2022-10-22T00:52:21.926Z,17.90
2022-10-22T00:52:44.846Z,18.35
2022-10-22T00:53:10.393Z,18.00
2022-10-22T00:53:36.661Z,17.63
2022-10-22T00:54:02.472Z,18.92
2022-10-22T00:54:25.186Z,18.27
2022-10-22T00:54:48.105Z,18.40
2022-10-22T00:55:10.782Z,18.08
2022-10-22T00:55:33.591Z,17.80
2022-10-22T00:55:56.365Z,18.13
2022-10-22T00:56:20.371Z,17.75
2022-10-22T00:56:43.058Z,18.02
2022-10-22T00:57:05.788Z,18.27
2022-10-22T00:57:28.486Z,17.67
2022-10-22T00:57:51.121Z,18.35
2022-10-22T00:58:13.953Z,18.70
2022-10-22T00:58:39.658Z,18.38
2022-10-22T00:59:02.506Z,18.55
2022-10-22T00:59:25.254Z,18.15
2022-10-22T00:59:48.096Z,17.65
2022-10-22T01:00:12.471Z,17.38
2022-10-22T01:00:36.636Z,18.40
2022-10-22T01:00:59.693Z,18.23
2022-10-22T01:01:25.562Z,18.15
2022-10-22T01:01:50.586Z,18.55
2022-10-22T01:02:15.921Z,17.73
2022-10-22T01:02:40.329Z,18.15
2022-10-22T01:03:03.297Z,18.23
2022-10-22T01:03:25.955Z,18.70
2022-10-22T01:03:51.621Z,18.42
2022-10-22T01:04:14.616Z,18.27
2022-10-22T01:04:37.440Z,17.88
2022-10-22T01:05:00.018Z,17.40
2022-10-22T01:05:22.717Z,18.67
2022-10-22T01:05:47.190Z,18.48
2022-10-22T01:06:10.676Z,18.60
2022-10-22T01:06:34.771Z,18.48
2022-10-22T01:06:57.460Z,18.60
2022-10-22T01:07:21.591Z,18.15
2022-10-22T01:07:45.260Z,18.25
2022-10-22T01:08:08.590Z,18.85
2022-10-22T01:08:36.036Z,17.75
2022-10-22T01:09:09.865Z,17.48
2022-10-22T01:09:34.817Z,17.92
2022-10-22T01:10:03.421Z,17.45
2022-10-22T01:10:35.856Z,18.20
2022-10-22T01:11:05.929Z,18.87
2022-10-22T01:11:33.540Z,18.30
2022-10-22T01:12:01.686Z,19.60
2022-10-22T01:12:28.800Z,18.42
2022-10-22T01:12:54.495Z,18.23
2022-10-22T01:13:22.725Z,18.60
2022-10-22T01:13:50.756Z,18.35
2022-10-22T01:14:17.696Z,19.60
2022-10-22T01:14:46.110Z,18.88
2022-10-22T01:15:17.184Z,18.75
2022-10-22T01:15:43.835Z,19.30
2022-10-22T01:16:09.492Z,19.83
2022-10-22T01:16:37.805Z,19.40
2022-10-22T01:17:08.471Z,19.10
2022-10-22T01:17:33.105Z,19.80
2022-10-22T01:17:59.552Z,19.20
2022-10-22T01:18:24.323Z,18.77
2022-10-22T01:18:49.915Z,19.30
2022-10-22T01:19:26.133Z,19.45
2022-10-22T01:19:56.159Z,19.75
2022-10-22T01:20:30.074Z,19.13
2022-10-22T01:21:00.880Z,18.45
2022-10-22T01:21:27.046Z,18.55
2022-10-22T01:21:52.369Z,18.45
2022-10-22T01:22:17.951Z,19.25
2022-10-22T01:22:42.410Z,18.40
2022-10-22T01:23:12.659Z,18.27
2022-10-22T01:24:01.065Z,18.85
2022-10-22T01:24:39.405Z,18.33
2022-10-22T01:25:06.097Z,19.35
2022-10-22T01:25:31.860Z,18.67
2022-10-22T01:25:57.214Z,18.05
2022-10-22T01:27:05.067Z,18.95
2022-10-22T01:27:49.455Z,18.55
2022-10-22T01:28:16.018Z,18.85
2022-10-22T01:28:49.939Z,19.05
2022-10-22T01:29:14.020Z,18.20
2022-10-22T01:29:39.275Z,18.15
2022-10-22T01:30:03.796Z,18.85
2022-10-22T01:30:26.699Z,18.80
2022-10-22T01:30:49.638Z,19.02
2022-10-22T01:31:12.395Z,19.50
2022-10-22T01:31:47.534Z,19.00
2022-10-22T01:32:13.134Z,18.92
2022-10-22T01:32:38.415Z,19.02
2022-10-22T01:33:02.592Z,19.17
2022-10-22T01:33:28.232Z,19.48
2022-10-22T01:33:51.384Z,18.73
2022-10-22T01:34:15.463Z,18.85
2022-10-22T01:34:39.218Z,18.60
2022-10-22T01:35:03.203Z,18.35
2022-10-22T01:35:27.565Z,18.15
2022-10-22T01:35:50.412Z,18.85
2022-10-22T01:36:13.107Z,18.90
2022-10-22T01:36:35.858Z,17.95
2022-10-22T01:36:58.668Z,18.58
2022-10-22T01:37:22.396Z,18.92
2022-10-22T01:37:47.326Z,19.02
2022-10-22T01:38:11.599Z,19.48
2022-10-22T01:38:34.327Z,18.80
2022-10-22T01:38:57.101Z,18.73
2022-10-22T01:39:19.801Z,19.38
2022-10-22T01:39:42.651Z,19.40
2022-10-22T01:40:07.031Z,19.35
2022-10-22T01:40:29.832Z,18.73
2022-10-22T01:40:52.562Z,19.08
2022-10-22T01:41:15.345Z,19.50
2022-10-22T01:41:39.167Z,19.70
2022-10-22T01:42:01.877Z,19.42
2022-10-22T01:42:24.570Z,19.20
2022-10-22T01:42:56.987Z,18.77
2022-10-22T01:43:19.908Z,18.80
2022-10-22T01:43:42.594Z,19.00
2022-10-22T01:44:06.877Z,19.67
2022-10-22T01:44:30.786Z,18.80
2022-10-22T01:44:53.641Z,18.90
2022-10-22T01:45:16.358Z,19.25
2022-10-22T01:45:40.001Z,18.65
2022-10-22T01:46:04.169Z,19.65
2022-10-22T01:46:27.848Z,19.88
2022-10-22T01:46:50.509Z,19.33
2022-10-22T01:47:17.553Z,19.42
2022-10-22T01:47:43.924Z,18.98
2022-10-22T01:48:15.688Z,18.83
2022-10-22T01:48:45.174Z,18.58
2022-10-22T01:49:14.243Z,18.92
2022-10-22T01:49:45.361Z,18.55
2022-10-22T01:50:24.375Z,18.65
2022-10-22T01:51:09.448Z,19.05
2022-10-22T01:51:41.142Z,18.92
2022-10-22T01:52:07.704Z,19.15
2022-10-22T01:52:37.128Z,18.25
2022-10-22T01:53:13.292Z,18.15
2022-10-22T01:53:40.540Z,18.42
2022-10-22T01:54:06.143Z,18.83
2022-10-22T01:54:33.983Z,18.88
2022-10-22T01:55:02.489Z,18.08
2022-10-22T01:55:28.736Z,18.02
2022-10-22T01:56:02.349Z,18.23
2022-10-22T01:56:31.757Z,19.08
2022-10-22T01:57:04.123Z,18.38
2022-10-22T01:57:31.687Z,18.15
2022-10-22T01:57:58.702Z,18.10
2022-10-22T01:58:26.594Z,18.70
2022-10-22T01:58:54.739Z,18.33
2022-10-22T01:59:22.924Z,18.23
2022-10-22T01:59:51.046Z,18.67
2022-10-22T02:00:15.206Z,18.50
2022-10-22T02:00:40.125Z,18.65
2022-10-22T02:01:05.900Z,18.83
2022-10-22T02:01:32.981Z,19.15
2022-10-22T02:01:57.602Z,18.88
2022-10-22T02:02:30.851Z,19.85
2022-10-22T02:02:56.756Z,19.00
2022-10-22T02:03:23.664Z,18.73
2022-10-22T02:03:51.358Z,19.50
2022-10-22T02:04:17.591Z,19.30
2022-10-22T02:04:43.841Z,19.05
2022-10-22T02:05:09.812Z,19.15
2022-10-22T02:05:34.403Z,18.63
2022-10-22T02:05:59.096Z,18.77
2022-10-22T02:06:22.726Z,18.35
2022-10-22T02:06:45.681Z,18.42
2022-10-22T02:07:09.238Z,18.83
2022-10-22T02:07:33.440Z,18.73
2022-10-22T02:07:59.692Z,18.80
2022-10-22T02:08:24.024Z,18.45
2022-10-22T02:08:46.715Z,18.35
2022-10-22T02:09:09.980Z,19.17
2022-10-22T02:09:32.868Z,18.70
2022-10-22T02:09:55.594Z,19.08
2022-10-22T02:10:18.779Z,18.60
2022-10-22T02:10:43.528Z,18.83
2022-10-22T02:11:06.399Z,19.02
2022-10-22T02:11:29.266Z,18.85
2022-10-22T02:11:52.256Z,18.77
2022-10-22T02:12:15.244Z,19.58
2022-10-22T02:12:38.187Z,19.40
2022-10-22T02:13:00.975Z,18.70
2022-10-22T02:13:25.146Z,19.20
2022-10-22T02:13:49.147Z,19.30
2022-10-22T02:14:11.821Z,19.98
2022-10-22T02:14:36.879Z,19.40
2022-10-22T02:15:00.570Z,19.08
2022-10-22T02:15:24.017Z,19.20
2022-10-22T02:15:46.752Z,19.00
2022-10-22T02:16:10.618Z,19.77
2022-10-22T02:16:35.615Z,19.88
2022-10-22T02:16:58.699Z,19.13
2022-10-22T02:17:22.172Z,19.40
2022-10-22T02:17:45.388Z,19.35
2022-10-22T02:18:08.567Z,19.98
2022-10-22T02:18:35.270Z,19.80
2022-10-22T02:19:03.738Z,18.45
2022-10-22T02:19:27.994Z,18.40
2022-10-22T02:19:53.265Z,19.02
2022-10-22T02:20:17.984Z,18.42
2022-10-22T02:20:41.512Z,18.77
2022-10-22T02:21:04.456Z,18.17
2022-10-22T02:21:27.409Z,18.45
2022-10-22T02:21:50.133Z,18.77
2022-10-22T02:22:12.853Z,17.60
2022-10-22T02:22:37.677Z,17.58
2022-10-22T02:23:00.637Z,18.60
2022-10-22T02:23:23.354Z,18.38
2022-10-22T02:23:46.757Z,18.17
2022-10-22T02:24:09.473Z,18.15
2022-10-22T02:24:32.431Z,17.95
2022-10-22T02:24:55.303Z,18.00
2022-10-22T02:25:18.117Z,18.35
2022-10-22T02:25:42.522Z,17.60
2022-10-22T02:26:07.709Z,18.50
2022-10-22T02:26:33.755Z,17.90
2022-10-22T02:27:01.477Z,17.98
2022-10-22T02:27:27.190Z,18.60
2022-10-22T02:27:51.690Z,19.13
2022-10-22T02:28:16.325Z,18.08
2022-10-22T02:28:42.668Z,17.92
2022-10-22T02:29:10.443Z,18.33
2022-10-22T02:29:37.380Z,18.80
2022-10-22T02:30:03.741Z,19.13
2022-10-22T02:30:26.478Z,19.05
2022-10-22T02:30:55.271Z,18.77
2022-10-22T02:31:20.240Z,18.73
2022-10-22T02:31:44.159Z,18.67
2022-10-22T02:32:07.721Z,18.98
2022-10-22T02:32:32.663Z,18.55
2022-10-22T02:32:58.000Z,17.65
2022-10-22T02:33:22.242Z,18.77
2022-10-22T02:33:46.986Z,18.98
2022-10-22T02:34:11.630Z,18.42
2022-10-22T02:34:34.448Z,17.98
2022-10-22T02:34:57.218Z,18.45
2022-10-22T02:35:22.012Z,18.58
2022-10-22T02:35:44.803Z,18.65
2022-10-22T02:36:07.852Z,18.52
2022-10-22T02:36:30.563Z,18.70
2022-10-22T02:36:53.273Z,18.88
2022-10-22T02:37:16.005Z,18.75
2022-10-22T02:37:38.725Z,18.25
2022-10-22T02:38:01.435Z,18.60
2022-10-22T02:38:24.384Z,18.70
2022-10-22T02:38:47.204Z,18.52
2022-10-22T02:39:09.994Z,18.30
2022-10-22T02:39:32.917Z,18.08
2022-10-22T02:39:56.539Z,17.70
2022-10-22T02:40:19.366Z,17.83
2022-10-22T02:40:41.967Z,18.73
2022-10-22T02:41:04.701Z,19.25
2022-10-22T02:41:27.476Z,18.70
2022-10-22T02:41:50.172Z,18.88
2022-10-22T02:42:12.955Z,18.63
2022-10-22T02:42:35.686Z,18.27
2022-10-22T02:42:58.480Z,18.17
2022-10-22T02:43:21.166Z,18.55
2022-10-22T02:43:45.341Z,18.30
2022-10-22T02:44:09.160Z,18.30
2022-10-22T02:44:32.144Z,19.15
2022-10-22T02:44:56.324Z,19.00
2022-10-22T02:45:19.310Z,18.77
2022-10-22T02:45:42.089Z,19.48
2022-10-22T02:46:04.833Z,19.52
2022-10-22T02:46:27.606Z,20.13
2022-10-22T02:46:50.420Z,19.63
2022-10-22T02:47:13.221Z,19.33
2022-10-22T02:47:35.938Z,18.50
2022-10-22T02:47:58.616Z,18.40
2022-10-22T02:48:48.865Z,18.90
2022-10-22T02:49:11.567Z,18.58
2022-10-22T02:49:34.245Z,18.80
2022-10-22T02:49:56.979Z,18.60
2022-10-22T02:50:19.740Z,19.35
2022-10-22T02:50:42.646Z,19.25
2022-10-22T02:51:05.603Z,18.88
2022-10-22T02:51:28.439Z,18.95
2022-10-22T02:51:51.145Z,19.00
2022-10-22T02:52:13.857Z,19.35
2022-10-22T02:52:36.628Z,19.85
2022-10-22T02:52:59.484Z,19.30
2022-10-22T02:53:22.116Z,18.85
2022-10-22T02:53:44.810Z,18.88
2022-10-22T02:54:07.525Z,19.85
2022-10-22T02:54:30.240Z,19.98
2022-10-22T02:54:52.989Z,19.67
2022-10-22T02:55:15.972Z,18.98
2022-10-22T02:55:38.740Z,19.92
2022-10-22T02:56:01.460Z,20.40
2022-10-22T02:56:24.160Z,20.08
2022-10-22T02:56:46.849Z,19.75
2022-10-22T02:57:09.662Z,19.60
2022-10-22T02:57:32.580Z,19.60
2022-10-22T02:57:55.295Z,19.50
2022-10-22T02:58:18.051Z,19.13
2022-10-22T02:58:40.815Z,19.35
2022-10-22T02:59:03.564Z,19.95
2022-10-22T02:59:26.180Z,19.90
2022-10-22T02:59:48.950Z,20.17
2022-10-22T03:00:15.061Z,19.98
2022-10-22T03:00:37.699Z,19.23
2022-10-22T03:01:00.529Z,19.73
2022-10-22T03:01:23.349Z,19.10
2022-10-22T03:01:46.110Z,19.92
2022-10-22T03:02:08.745Z,18.67
2022-10-22T03:02:31.605Z,18.98
2022-10-22T03:02:54.508Z,18.50
2022-10-22T03:03:17.613Z,19.23
2022-10-22T03:03:40.385Z,18.80
2022-10-22T03:04:03.202Z,18.50
2022-10-22T03:04:26.112Z,18.83
2022-10-22T03:04:48.852Z,18.85
2022-10-22T03:05:11.589Z,19.50
2022-10-22T03:05:34.488Z,19.15
2022-10-22T03:05:57.248Z,19.38
2022-10-22T03:06:20.063Z,19.23
2022-10-22T03:06:44.358Z,18.90
2022-10-22T03:07:06.960Z,19.20
2022-10-22T03:07:29.836Z,19.15
2022-10-22T03:07:52.556Z,18.90
2022-10-22T03:08:15.261Z,18.98
2022-10-22T03:08:38.187Z,19.00
2022-10-22T03:09:01.025Z,18.55
2022-10-22T03:09:24.889Z,18.60
2022-10-22T03:09:47.755Z,18.80
2022-10-22T03:10:10.650Z,19.17
2022-10-22T03:10:33.562Z,18.45
2022-10-22T03:10:56.217Z,18.35
2022-10-22T03:11:18.925Z,18.23
2022-10-22T03:11:41.660Z,18.55
2022-10-22T03:12:04.896Z,18.10
2022-10-22T03:12:27.729Z,18.33
2022-10-22T03:12:50.444Z,18.00
2022-10-22T03:13:13.165Z,18.45
2022-10-22T03:13:36.104Z,18.92
2022-10-22T03:13:58.816Z,18.65
2022-10-22T03:14:21.661Z,18.75
2022-10-22T03:14:44.396Z,17.85
2022-10-22T03:15:07.658Z,18.17
2022-10-22T03:15:31.758Z,18.13
2022-10-22T03:15:54.378Z,19.08
2022-10-22T03:16:17.107Z,18.40
2022-10-22T03:16:39.832Z,18.65
2022-10-22T03:17:02.557Z,18.58
2022-10-22T03:17:25.294Z,18.38
2022-10-22T03:17:48.077Z,18.33
2022-10-22T03:18:10.776Z,18.65
2022-10-22T03:18:33.625Z,18.33
2022-10-22T03:18:56.321Z,17.35
2022-10-22T03:19:19.208Z,18.25
2022-10-22T03:19:42.587Z,17.88
2022-10-22T03:20:06.182Z,17.90
2022-10-22T03:20:29.946Z,17.23
2022-10-22T03:21:00.657Z,17.50
2022-10-22T03:21:30.797Z,17.80
2022-10-22T03:21:54.021Z,18.02
2022-10-22T03:22:19.208Z,17.55
2022-10-22T03:22:42.076Z,18.42
2022-10-22T03:23:04.817Z,18.42
2022-10-22T03:23:27.556Z,18.42
2022-10-22T03:23:50.269Z,18.27
2022-10-22T03:24:15.021Z,18.25
2022-10-22T03:24:39.341Z,18.65
2022-10-22T03:25:08.017Z,18.50
2022-10-22T03:25:34.653Z,17.23
2022-10-22T03:26:25.619Z,17.20
2022-10-22T03:26:48.890Z,17.92
2022-10-22T03:27:11.590Z,17.25
2022-10-22T03:27:34.285Z,17.35
2022-10-22T03:27:57.040Z,17.67
2022-10-22T03:28:19.805Z,17.60
2022-10-22T03:28:42.459Z,17.20
2022-10-22T03:29:05.370Z,16.92
2022-10-22T03:29:28.359Z,18.17
2022-10-22T03:29:51.259Z,17.60
2022-10-22T03:30:14.069Z,16.75
2022-10-22T03:30:38.280Z,17.02
2022-10-22T03:31:01.019Z,17.13
2022-10-22T03:31:23.845Z,17.20
2022-10-22T03:31:46.587Z,17.20
2022-10-22T03:32:09.460Z,17.38
2022-10-22T03:32:32.190Z,18.10
2022-10-22T03:32:54.875Z,17.75
2022-10-22T03:33:17.601Z,17.23
2022-10-22T03:33:40.301Z,17.02
2022-10-22T03:34:03.015Z,16.65
2022-10-22T03:34:25.884Z,17.25
2022-10-22T03:34:48.681Z,18.05
2022-10-22T03:35:11.524Z,17.30
2022-10-22T03:35:34.559Z,17.48
2022-10-22T03:35:57.278Z,17.05
2022-10-22T03:36:20.064Z,16.50
2022-10-22T03:36:42.804Z,17.70
2022-10-22T03:37:05.749Z,17.45
2022-10-22T03:37:28.586Z,17.73
2022-10-22T03:37:51.245Z,17.33
2022-10-22T03:38:13.955Z,16.52
2022-10-22T03:38:36.860Z,16.65
2022-10-22T03:38:59.630Z,16.83
2022-10-22T03:39:22.404Z,16.92
2022-10-22T03:39:46.429Z,17.10
2022-10-22T03:40:11.702Z,16.65
2022-10-22T03:40:34.600Z,16.55
2022-10-22T03:40:57.370Z,16.60
2022-10-22T03:41:21.924Z,16.75
2022-10-22T03:41:44.598Z,17.15
2022-10-22T03:42:07.358Z,17.20
2022-10-22T03:42:30.099Z,17.45
2022-10-22T03:42:52.747Z,16.67
2022-10-22T03:43:15.549Z,17.20
2022-10-22T03:43:38.330Z,17.20
2022-10-22T03:44:01.166Z,16.88
2022-10-22T03:44:23.912Z,17.08
2022-10-22T03:44:46.790Z,17.40
2022-10-22T03:45:11.130Z,17.10
2022-10-22T03:45:33.865Z,16.92
2022-10-22T03:45:58.168Z,17.20
2022-10-22T03:46:20.983Z,17.80
2022-10-22T03:46:43.684Z,17.08
2022-10-22T03:47:06.464Z,16.95
2022-10-22T03:47:29.188Z,17.08
2022-10-22T03:47:51.874Z,17.00
2022-10-22T03:48:14.584Z,17.08
2022-10-22T03:48:37.269Z,17.27
2022-10-22T03:48:59.996Z,17.98
2022-10-22T03:49:22.715Z,16.90
2022-10-22T03:49:45.478Z,17.08
2022-10-22T03:50:09.856Z,17.20
2022-10-22T03:50:32.523Z,17.85
2022-10-22T03:50:55.210Z,17.70
2022-10-22T03:51:18.000Z,17.77
2022-10-22T03:51:40.727Z,17.50
2022-10-22T03:52:07.019Z,17.05
2022-10-22T03:52:34.886Z,16.48
2022-10-22T03:52:58.416Z,17.10
2022-10-22T03:53:21.148Z,16.85
2022-10-22T03:53:43.924Z,16.60
2022-10-22T03:54:06.653Z,16.38
2022-10-22T03:54:29.684Z,16.95
2022-10-22T03:54:53.436Z,16.00
2022-10-22T03:55:16.282Z,16.90
2022-10-22T03:55:40.950Z,17.05
2022-10-22T03:56:05.845Z,16.83
2022-10-22T03:56:28.652Z,16.45
2022-10-22T03:56:51.353Z,17.25
2022-10-22T03:57:14.021Z,17.05
2022-10-22T03:57:36.990Z,17.30
2022-10-22T03:57:59.865Z,17.60
2022-10-22T03:58:22.701Z,17.70
2022-10-22T03:58:45.689Z,17.50
2022-10-22T03:59:08.329Z,18.35
2022-10-22T03:59:35.530Z,17.23
2022-10-22T03:59:58.199Z,17.73
2022-10-22T04:00:20.965Z,16.70
2022-10-22T04:00:43.799Z,17.30
2022-10-22T04:01:08.535Z,17.40
2022-10-22T04:01:31.554Z,17.77
2022-10-22T04:01:54.460Z,17.30
2022-10-22T04:02:17.166Z,17.83
2022-10-22T04:02:39.868Z,17.52
2022-10-22T04:03:02.564Z,17.05
2022-10-22T04:03:25.336Z,16.63
2022-10-22T04:03:48.032Z,17.65
2022-10-22T04:04:10.776Z,17.38
2022-10-22T04:04:33.511Z,17.27
2022-10-22T04:04:56.176Z,17.88
2022-10-22T04:05:18.877Z,17.80
2022-10-22T04:05:41.602Z,17.65
2022-10-22T04:06:04.960Z,17.83
2022-10-22T04:06:29.115Z,17.65
2022-10-22T04:06:51.915Z,18.02
2022-10-22T04:07:14.660Z,17.33
2022-10-22T04:07:37.630Z,17.60
2022-10-22T04:08:00.741Z,17.80
2022-10-22T04:08:26.356Z,18.80
2022-10-22T04:08:49.146Z,17.90
2022-10-22T04:09:11.914Z,17.70
2022-10-22T04:09:34.906Z,17.70
2022-10-22T04:09:57.601Z,17.60
2022-10-22T04:10:20.549Z,17.23
2022-10-22T04:10:43.277Z,17.65
2022-10-22T04:11:06.128Z,17.80
2022-10-22T04:11:28.869Z,17.80
2022-10-22T04:11:51.669Z,17.55
2022-10-22T04:12:14.392Z,17.02
2022-10-22T04:12:39.835Z,17.02
2022-10-22T04:13:02.545Z,17.55
2022-10-22T04:13:25.258Z,17.77
2022-10-22T04:13:48.011Z,16.95
2022-10-22T04:14:12.165Z,17.27
2022-10-22T04:14:34.890Z,16.80
2022-10-22T04:14:57.600Z,17.40
2022-10-22T04:15:20.485Z,17.67
2022-10-22T04:15:43.188Z,17.13
2022-10-22T04:16:11.880Z,16.88
2022-10-22T04:16:34.669Z,17.60
2022-10-22T04:16:57.394Z,17.67
2022-10-22T04:17:20.227Z,17.67
2022-10-22T04:17:43.281Z,17.30
2022-10-22T04:18:09.052Z,17.52
2022-10-22T04:18:31.717Z,17.33
2022-10-22T04:18:54.473Z,17.38
2022-10-22T04:19:17.236Z,17.30
2022-10-22T04:19:40.046Z,18.08
2022-10-22T04:20:02.797Z,17.23
2022-10-22T04:20:25.473Z,16.83
2022-10-22T04:20:48.102Z,17.17
2022-10-22T04:21:11.681Z,17.20
2022-10-22T04:21:34.422Z,17.02
2022-10-22T04:21:58.998Z,17.67
2022-10-22T04:22:21.929Z,17.58
2022-10-22T04:22:44.649Z,17.00
2022-10-22T04:23:07.367Z,17.20
2022-10-22T04:23:30.086Z,17.40
2022-10-22T04:23:53.127Z,17.65
2022-10-22T04:24:15.899Z,17.63
2022-10-22T04:24:38.742Z,17.55
2022-10-22T04:25:01.606Z,16.80
2022-10-22T04:25:24.324Z,17.75
2022-10-22T04:25:46.998Z,17.27
2022-10-22T04:26:09.709Z,17.58
2022-10-22T04:26:32.498Z,17.75
2022-10-22T04:26:55.169Z,17.17
2022-10-22T04:27:17.925Z,17.20
2022-10-22T04:27:40.767Z,16.45
2022-10-22T04:28:06.088Z,17.33
2022-10-22T04:28:28.764Z,18.35
2022-10-22T04:28:51.838Z,17.63
2022-10-22T04:29:16.155Z,16.90
2022-10-22T04:29:39.654Z,17.25
2022-10-22T04:30:02.348Z,17.27
2022-10-22T04:30:25.070Z,17.88
2022-10-22T04:30:47.828Z,17.30
2022-10-22T04:31:13.288Z,17.40
2022-10-22T04:31:36.094Z,16.98
2022-10-22T04:31:58.785Z,16.80
2022-10-22T04:32:21.613Z,16.52
2022-10-22T04:32:44.323Z,17.23
2022-10-22T04:33:07.012Z,17.95
2022-10-22T04:33:29.693Z,17.20
2022-10-22T04:33:53.984Z,17.38
2022-10-22T04:34:16.761Z,16.92
2022-10-22T04:34:39.523Z,17.05
2022-10-22T04:35:02.270Z,16.58
2022-10-22T04:35:52.645Z,16.25
2022-10-22T04:36:16.230Z,16.33
2022-10-22T04:36:38.901Z,16.48
2022-10-22T04:37:01.623Z,16.40
2022-10-22T04:37:24.360Z,16.60
2022-10-22T04:37:47.060Z,16.15
2022-10-22T04:38:09.783Z,16.35
2022-10-22T04:38:32.480Z,16.75
2022-10-22T04:38:56.727Z,17.27
2022-10-22T04:39:19.527Z,16.38
2022-10-22T04:39:42.266Z,16.15
2022-10-22T04:40:06.081Z,16.58
2022-10-22T04:40:28.720Z,16.02
2022-10-22T04:40:51.421Z,16.40
2022-10-22T04:41:15.196Z,16.73
2022-10-22T04:41:38.901Z,16.70
2022-10-22T04:42:01.621Z,16.00
2022-10-22T04:42:24.427Z,16.88
2022-10-22T04:42:47.176Z,17.25
2022-10-22T04:43:09.909Z,17.10
2022-10-22T04:43:32.632Z,16.77
2022-10-22T04:43:55.610Z,16.88
2022-10-22T04:44:18.406Z,16.35
2022-10-22T04:44:41.831Z,16.83
2022-10-22T04:45:05.243Z,16.60
2022-10-22T04:45:27.950Z,16.73
2022-10-22T04:45:50.754Z,17.20
2022-10-22T04:46:15.682Z,16.45
2022-10-22T04:46:38.400Z,16.77
2022-10-22T04:47:01.020Z,16.70
2022-10-22T04:47:23.699Z,17.08
2022-10-22T04:47:46.347Z,17.50
2022-10-22T04:48:12.405Z,17.45
2022-10-22T04:48:36.005Z,17.13
2022-10-22T04:48:58.804Z,17.92
2022-10-22T04:49:21.608Z,17.67
2022-10-22T04:49:44.459Z,17.80
2022-10-22T04:50:08.402Z,17.10
2022-10-22T04:50:32.424Z,17.83
2022-10-22T04:51:01.277Z,17.55
2022-10-22T04:51:24.806Z,17.27
2022-10-22T04:51:47.489Z,17.40
2022-10-22T04:52:10.179Z,17.35
2022-10-22T04:52:32.837Z,17.30
2022-10-22T04:52:58.326Z,17.30
2022-10-22T04:53:20.960Z,16.73
2022-10-22T04:53:44.865Z,16.85
2022-10-22T04:54:07.759Z,16.70
2022-10-22T04:54:33.037Z,16.58
2022-10-22T04:54:56.222Z,17.30
2022-10-22T04:55:18.917Z,17.58
2022-10-22T04:55:41.701Z,17.85
2022-10-22T04:56:08.577Z,18.05
2022-10-22T04:56:31.629Z,17.73
2022-10-22T04:56:54.315Z,18.02
2022-10-22T04:57:17.314Z,18.83
2022-10-22T04:57:40.363Z,18.38
2022-10-22T04:58:03.456Z,17.90
2022-10-22T04:58:26.092Z,18.13
2022-10-22T04:58:49.138Z,18.60
2022-10-22T04:59:13.168Z,18.50
2022-10-22T04:59:35.838Z,18.27
2022-10-22T04:59:58.548Z,17.67
2022-10-22T05:00:21.322Z,18.15
2022-10-22T05:00:44.150Z,18.02
2022-10-22T05:01:11.317Z,17.80
2022-10-22T05:01:39.981Z,17.67
2022-10-22T05:02:06.088Z,16.52
2022-10-22T05:02:28.925Z,16.80
2022-10-22T05:02:51.654Z,16.58
2022-10-22T05:03:14.408Z,16.65
2022-10-22T05:03:38.714Z,16.73
2022-10-22T05:04:02.315Z,16.45
2022-10-22T05:04:25.125Z,16.67
2022-10-22T05:04:47.906Z,16.58
2022-10-22T05:05:11.983Z,17.00
2022-10-22T05:05:34.750Z,16.60
2022-10-22T05:06:00.837Z,16.45
2022-10-22T05:06:25.070Z,16.02
2022-10-22T05:06:47.854Z,16.40
2022-10-22T05:07:10.566Z,16.75
2022-10-22T05:07:33.403Z,16.60
2022-10-22T05:07:56.145Z,16.80
2022-10-22T05:08:18.829Z,16.83
2022-10-22T05:08:42.124Z,16.23
2022-10-22T05:09:06.348Z,16.73
2022-10-22T05:09:29.227Z,16.85
2022-10-22T05:09:51.858Z,17.17
2022-10-22T05:10:14.728Z,17.58
2022-10-22T05:10:37.408Z,17.17
2022-10-22T05:11:00.183Z,16.98
2022-10-22T05:11:23.854Z,17.30
2022-10-22T05:11:48.986Z,17.17